createdAt,value
2023-04-01T00:01:52.767Z,0.73
2023-04-01T00:04:19.913Z,1.27
2023-04-01T00:06:48.319Z,2.03
2023-04-01T00:09:16.023Z,1.30
2023-04-01T00:11:43.486Z,2.53
2023-04-01T00:14:11.020Z,1.00
2023-04-01T00:16:38.590Z,2.72
2023-04-01T00:19:05.679Z,2.10
2023-04-01T00:21:33.303Z,1.02
2023-04-01T00:24:00.882Z,2.72
2023-04-01T00:26:28.083Z,1.92
2023-04-01T00:28:55.321Z,1.98
2023-04-01T00:31:22.306Z,1.77
2023-04-01T00:33:49.595Z,1.40
2023-04-01T00:36:19.742Z,0.80
2023-04-01T00:38:47.910Z,2.50
2023-04-01T00:41:16.673Z,6.03
2023-04-01T00:43:47.256Z,1.10
2023-04-01T00:46:14.562Z,2.42
2023-04-01T00:48:52.714Z,2.17
2023-04-01T00:51:28.436Z,2.47
2023-04-01T00:53:58.242Z,0.80
2023-04-01T00:56:58.988Z,0.73
2023-04-01T00:59:41.672Z,3.13
2023-04-01T01:02:12.227Z,1.00
2023-04-01T01:04:39.530Z,3.05
2023-04-01T01:07:37.506Z,0.60
2023-04-01T01:10:31.230Z,0.85
2023-04-01T01:13:13.179Z,0.50
2023-04-01T01:19:03.888Z,0.77
2023-04-01T01:21:36.218Z,1.25
2023-04-01T01:24:11.960Z,2.15
2023-04-01T01:27:00.821Z,0.43
2023-04-01T01:29:46.537Z,0.95
2023-04-01T01:32:38.078Z,2.45
2023-04-01T01:35:29.381Z,0.50
2023-04-01T01:38:11.032Z,0.95
2023-04-01T01:40:41.815Z,0.90
2023-04-01T01:43:13.885Z,3.33
2023-04-01T01:48:12.322Z,1.13
2023-04-01T01:50:41.424Z,1.45
2023-04-01T01:53:12.893Z,1.10
2023-04-01T01:55:42.782Z,2.92
2023-04-01T01:58:15.088Z,5.30
2023-04-01T02:00:46.905Z,2.95
2023-04-01T02:03:15.782Z,2.47
2023-04-01T02:05:43.218Z,1.00
2023-04-01T02:08:16.206Z,7.03
2023-04-01T02:10:53.909Z,2.35
2023-04-01T02:13:47.264Z,1.75
2023-04-01T02:16:27.888Z,1.65
2023-04-01T02:18:57.997Z,1.77
2023-04-01T02:21:32.411Z,0.50
2023-04-01T02:24:01.878Z,1.55
2023-04-01T02:26:28.905Z,0.80
2023-04-01T02:28:58.581Z,0.73
2023-04-01T02:31:26.184Z,0.60
2023-04-01T02:33:55.500Z,1.00
2023-04-01T02:36:22.659Z,1.40
2023-04-01T02:38:52.585Z,0.95
2023-04-01T02:41:19.599Z,2.67
2023-04-01T02:43:47.706Z,0.70
2023-04-01T02:46:14.867Z,0.77
2023-04-01T02:48:41.956Z,1.38
2023-04-01T02:51:09.887Z,4.88
2023-04-01T02:53:36.846Z,0.52
2023-04-01T02:56:04.059Z,1.52
2023-04-01T02:58:30.991Z,1.40
2023-04-01T03:00:57.941Z,1.27
2023-04-01T03:03:25.099Z,2.83
2023-04-01T03:05:52.256Z,1.42
2023-04-01T03:08:19.774Z,0.80
2023-04-01T03:10:46.870Z,1.27
2023-04-01T03:13:13.758Z,2.60
2023-04-01T03:15:40.711Z,1.60
2023-04-01T03:18:07.709Z,7.57
2023-04-01T03:20:35.052Z,2.35
2023-04-01T03:23:01.979Z,2.33
2023-04-01T03:25:29.739Z,1.13
2023-04-01T03:27:57.002Z,3.85
2023-04-01T03:30:23.969Z,1.67
2023-04-01T03:32:51.561Z,2.20
2023-04-01T03:35:18.891Z,2.92
2023-04-01T03:37:46.618Z,1.35
2023-04-01T03:40:13.876Z,3.10
2023-04-01T03:42:40.936Z,4.32
2023-04-01T03:45:08.605Z,1.77
2023-04-01T03:47:35.982Z,2.20
2023-04-01T03:50:03.106Z,1.88
2023-04-01T03:52:30.363Z,2.70
2023-04-01T03:54:57.469Z,6.03
2023-04-01T03:57:24.555Z,4.18
2023-04-01T03:59:52.222Z,0.65
2023-04-01T04:02:19.736Z,2.78
2023-04-01T04:04:47.462Z,0.73
2023-04-01T04:07:17.285Z,1.60
2023-04-01T04:10:05.280Z,1.30
2023-04-01T04:12:32.508Z,0.65
2023-04-01T04:14:59.532Z,1.25
2023-04-01T04:17:27.143Z,1.00
2023-04-01T04:19:54.118Z,1.30
2023-04-01T04:22:22.269Z,1.85
2023-04-01T04:24:49.322Z,2.15
2023-04-01T04:27:18.339Z,1.65
2023-04-01T04:29:55.476Z,2.25
2023-04-01T04:32:22.421Z,3.05
2023-04-01T04:34:49.634Z,4.38
2023-04-01T04:37:17.000Z,1.85
2023-04-01T04:39:44.308Z,0.93
2023-04-01T04:42:11.430Z,1.23
2023-04-01T04:44:38.417Z,1.45
2023-04-01T04:47:05.609Z,1.00
2023-04-01T04:49:32.756Z,1.13
2023-04-01T04:54:31.710Z,2.10
2023-04-01T04:57:01.477Z,2.00
2023-04-01T04:59:32.901Z,1.48
2023-04-01T05:02:11.823Z,2.53
2023-04-01T05:04:38.988Z,3.25
2023-04-01T05:07:09.827Z,4.78
2023-04-01T05:09:36.885Z,2.22
2023-04-01T05:12:04.734Z,5.28
2023-04-01T05:14:50.582Z,4.78
2023-04-01T05:17:17.473Z,3.47
2023-04-01T05:19:44.648Z,3.58
2023-04-01T05:22:11.653Z,5.53
2023-04-01T05:24:40.380Z,5.10
2023-04-01T05:27:07.497Z,5.25
2023-04-01T05:29:37.759Z,5.90
2023-04-01T05:32:08.392Z,5.57
2023-04-01T05:34:36.089Z,6.20
2023-04-01T05:37:03.124Z,9.02
2023-04-01T05:39:30.414Z,10.10
2023-04-01T05:41:57.425Z,9.63
2023-04-01T05:44:24.581Z,9.52
2023-04-01T05:47:05.014Z,4.22
2023-04-01T05:49:33.968Z,7.72
2023-04-01T05:52:01.710Z,11.80
2023-04-01T05:54:29.802Z,10.45
2023-04-01T05:56:57.157Z,5.15
2023-04-01T05:59:24.522Z,8.07
2023-04-01T06:01:52.349Z,10.90
2023-04-01T06:04:21.063Z,6.97
2023-04-01T06:06:48.120Z,7.68
2023-04-01T06:09:21.039Z,7.50
2023-04-01T06:12:09.123Z,5.55
2023-04-01T06:14:56.054Z,7.07
2023-04-01T06:18:03.614Z,5.88
2023-04-01T06:20:51.643Z,7.57
2023-04-01T06:23:34.533Z,5.97
2023-04-01T06:26:25.897Z,9.02
2023-04-01T06:29:02.750Z,6.40
2023-04-01T06:32:10.998Z,10.23
2023-04-01T06:34:41.066Z,6.70
2023-04-01T06:37:29.152Z,6.60
2023-04-01T06:40:19.189Z,10.88
2023-04-01T06:43:02.870Z,9.05
2023-04-01T06:46:13.814Z,6.63
2023-04-01T06:49:21.191Z,13.10
2023-04-01T06:52:27.944Z,6.47
2023-04-01T06:55:38.812Z,8.45
2023-04-01T06:58:23.362Z,8.88
2023-04-01T07:00:59.182Z,13.73
2023-04-01T07:03:42.216Z,9.40
2023-04-01T07:06:22.388Z,10.75
2023-04-01T07:08:56.833Z,9.07
2023-04-01T07:11:35.211Z,24.85
2023-04-01T07:14:38.488Z,6.22
2023-04-01T07:17:07.764Z,6.40
2023-04-01T07:19:46.180Z,8.27
2023-04-01T07:22:24.896Z,9.80
2023-04-01T07:25:19.607Z,7.25
2023-04-01T07:28:02.196Z,10.65
2023-04-01T07:30:49.571Z,8.48
2023-04-01T07:33:20.968Z,7.75
2023-04-01T07:36:04.629Z,7.40
2023-04-01T07:38:50.022Z,11.15
2023-04-01T07:41:37.713Z,8.55
2023-04-01T07:44:28.917Z,8.65
2023-04-01T07:47:26.700Z,7.20
2023-04-01T07:50:15.496Z,8.50
2023-04-01T07:52:57.179Z,8.50
2023-04-01T07:55:54.378Z,6.53
2023-04-01T07:58:37.613Z,8.98
2023-04-01T08:01:31.380Z,7.85
2023-04-01T08:04:24.943Z,8.48
2023-04-01T08:07:14.374Z,7.32
2023-04-01T08:10:02.826Z,5.93
2023-04-01T08:13:42.147Z,6.35
2023-04-01T08:16:58.048Z,11.60
2023-04-01T08:19:45.373Z,8.32
2023-04-01T08:22:30.114Z,6.25
2023-04-01T08:25:05.223Z,4.97
2023-04-01T08:27:38.123Z,7.15
2023-04-01T08:30:22.648Z,6.82
2023-04-01T08:33:31.908Z,6.65
2023-04-01T08:36:17.461Z,6.10
2023-04-01T08:39:00.793Z,13.25
2023-04-01T08:41:58.492Z,6.85
2023-04-01T08:45:16.315Z,3.90
2023-04-01T08:48:24.087Z,6.47
2023-04-01T08:51:34.385Z,7.70
2023-04-01T08:54:26.979Z,4.93
2023-04-01T08:56:57.414Z,4.93
2023-04-01T08:59:54.268Z,4.38
2023-04-01T09:02:50.196Z,3.60
2023-04-01T09:05:55.315Z,3.33
2023-04-01T09:08:44.174Z,2.45
2023-04-01T09:11:42.072Z,4.45
2023-04-01T09:14:52.741Z,6.00
2023-04-01T09:17:37.508Z,4.90
2023-04-01T09:20:11.137Z,3.70
2023-04-01T09:23:04.017Z,2.60
2023-04-01T09:25:38.578Z,4.05
2023-04-01T09:28:08.457Z,3.80
2023-04-01T09:31:03.439Z,2.88
2023-04-01T09:33:49.450Z,4.40
2023-04-01T09:36:33.728Z,4.68
2023-04-01T09:39:23.836Z,3.75
2023-04-01T09:42:11.947Z,3.08
2023-04-01T09:45:14.959Z,4.05
2023-04-01T09:47:58.509Z,4.18
2023-04-01T09:50:43.980Z,3.83
2023-04-01T09:53:36.924Z,3.45
2023-04-01T09:56:13.840Z,4.20
2023-04-01T09:59:08.929Z,5.80
2023-04-01T10:02:36.512Z,7.00
2023-04-01T10:05:18.051Z,5.40
2023-04-01T10:07:45.283Z,4.82
2023-04-01T10:10:26.965Z,5.43
2023-04-01T10:15:36.335Z,5.82
2023-04-01T10:18:38.386Z,4.47
2023-04-01T10:21:37.741Z,5.95
2023-04-01T10:24:32.956Z,5.65
2023-04-01T10:27:28.565Z,7.55
2023-04-01T10:30:36.563Z,3.78
2023-04-01T10:33:46.441Z,5.35
2023-04-01T10:36:53.259Z,14.82
2023-04-01T10:39:36.740Z,5.60
2023-04-01T10:42:47.849Z,6.00
2023-04-01T10:45:54.061Z,4.35
2023-04-01T10:48:46.726Z,5.78
2023-04-01T10:51:32.757Z,7.90
2023-04-01T10:54:19.380Z,5.40
2023-04-01T10:57:25.207Z,5.10
2023-04-01T11:00:48.275Z,6.60
2023-04-01T11:04:04.583Z,7.60
2023-04-01T11:07:00.669Z,15.82
2023-04-01T11:09:52.195Z,6.22
2023-04-01T11:12:53.704Z,5.95
2023-04-01T11:15:45.755Z,8.15
2023-04-01T11:21:26.776Z,5.07
2023-04-01T11:24:13.075Z,8.57
2023-04-01T11:27:19.944Z,7.35
2023-04-01T11:30:27.400Z,4.70
2023-04-01T11:33:01.294Z,5.55
2023-04-01T11:36:11.224Z,8.18
2023-04-01T11:38:58.070Z,4.25
2023-04-01T11:42:03.303Z,5.43
2023-04-01T11:45:18.110Z,3.75
2023-04-01T11:47:46.140Z,7.20
2023-04-01T11:50:24.644Z,11.63
2023-04-01T11:53:34.952Z,5.55
2023-04-01T11:56:15.995Z,7.40
2023-04-01T11:59:06.508Z,4.38
2023-04-01T12:01:54.867Z,7.03
2023-04-01T12:04:27.773Z,7.60
2023-04-01T12:07:06.864Z,7.85
2023-04-01T12:09:59.892Z,5.18
2023-04-01T12:13:01.208Z,5.10
2023-04-01T12:16:06.136Z,4.45
2023-04-01T12:19:11.269Z,4.40
2023-04-01T12:21:57.952Z,3.90
2023-04-01T12:24:39.178Z,3.47
2023-04-01T12:27:17.171Z,3.95
2023-04-01T12:30:10.591Z,5.10
2023-04-01T12:32:46.753Z,4.25
2023-04-01T12:35:28.755Z,7.25
2023-04-01T12:38:08.372Z,5.55
2023-04-01T12:41:06.620Z,5.72
2023-04-01T12:43:48.775Z,3.88
2023-04-01T12:46:33.317Z,3.65
2023-04-01T12:49:10.735Z,3.83
2023-04-01T12:51:52.984Z,4.22
2023-04-01T12:54:38.726Z,4.55
2023-04-01T12:57:34.468Z,6.50
2023-04-01T13:00:28.371Z,4.25
2023-04-01T13:02:55.722Z,4.78
2023-04-01T13:05:53.014Z,3.95
2023-04-01T13:08:29.479Z,3.50
2023-04-01T13:11:18.878Z,3.70
2023-04-01T13:14:31.466Z,5.60
2023-04-01T13:17:29.792Z,3.22
2023-04-01T13:20:06.262Z,5.53
2023-04-01T13:23:04.595Z,3.80
2023-04-01T13:25:48.675Z,7.13
2023-04-01T13:28:27.524Z,5.13
2023-04-01T13:30:59.817Z,4.82
2023-04-01T13:33:34.231Z,4.55
2023-04-01T13:36:36.960Z,5.32
2023-04-01T13:39:22.112Z,4.40
2023-04-01T13:42:14.006Z,6.35
2023-04-01T13:44:59.278Z,4.00
2023-04-01T13:47:47.020Z,6.25
2023-04-01T13:50:47.243Z,8.57
2023-04-01T13:53:26.657Z,6.65
2023-04-01T13:56:11.100Z,5.88
2023-04-01T13:59:10.390Z,6.15
2023-04-01T14:01:59.592Z,6.65
2023-04-01T14:04:32.309Z,5.97
2023-04-01T14:07:17.417Z,4.78
2023-04-01T14:10:14.001Z,6.75
2023-04-01T14:12:58.328Z,6.03
2023-04-01T14:15:46.641Z,5.72
2023-04-01T14:18:38.028Z,5.32
2023-04-01T14:21:25.039Z,4.82
2023-04-01T14:23:58.263Z,5.55
2023-04-01T14:26:35.311Z,6.50
2023-04-01T14:29:32.935Z,4.25
2023-04-01T14:32:44.823Z,8.07
2023-04-01T14:35:20.937Z,5.65
2023-04-01T14:38:18.488Z,4.88
2023-04-01T14:41:27.443Z,5.72
2023-04-01T14:43:54.393Z,5.60
2023-04-01T14:47:04.159Z,5.55
2023-04-01T14:49:47.355Z,5.95
2023-04-01T14:52:26.389Z,4.10
2023-04-01T14:54:54.183Z,4.28
2023-04-01T14:57:30.386Z,5.45
2023-04-01T15:00:19.070Z,4.15
2023-04-01T15:03:00.137Z,4.10
2023-04-01T15:05:53.704Z,3.40
2023-04-01T15:08:29.590Z,5.78
2023-04-01T15:11:19.761Z,5.03
2023-04-01T15:14:16.581Z,5.60
2023-04-01T15:17:19.038Z,5.63
2023-04-01T15:19:46.210Z,5.30
2023-04-01T15:22:28.426Z,6.75
2023-04-01T15:25:53.079Z,5.57
2023-04-01T15:28:47.353Z,5.72
2023-04-01T15:31:41.911Z,4.50
2023-04-01T15:34:22.569Z,4.63
2023-04-01T15:37:10.176Z,7.85
2023-04-01T15:40:02.202Z,7.40
2023-04-01T15:42:38.346Z,6.80
2023-04-01T15:45:13.718Z,5.90
2023-04-01T15:47:58.543Z,7.15
2023-04-01T15:50:47.183Z,4.55
2023-04-01T15:53:23.632Z,6.30
2023-04-01T15:56:22.752Z,7.50
2023-04-01T15:59:14.651Z,6.85
2023-04-01T16:02:03.175Z,4.95
2023-04-01T16:05:12.802Z,6.18
2023-04-01T16:08:16.904Z,8.32
2023-04-01T16:11:03.700Z,4.70
2023-04-01T16:13:51.808Z,7.68
2023-04-01T16:16:25.351Z,4.90
2023-04-01T16:19:04.265Z,5.47
2023-04-01T16:21:42.125Z,3.85
2023-04-01T16:24:25.506Z,7.47
2023-04-01T16:26:55.992Z,8.55
2023-04-01T16:29:39.426Z,4.03
2023-04-01T16:32:18.291Z,3.45
2023-04-01T16:35:16.186Z,6.38
2023-04-01T16:38:13.848Z,4.40
2023-04-01T16:41:08.969Z,5.25
2023-04-01T16:44:09.772Z,5.13
2023-04-01T16:46:44.200Z,4.50
2023-04-01T16:49:56.557Z,3.70
2023-04-01T16:55:16.716Z,2.13
2023-04-01T16:57:54.946Z,2.50
2023-04-01T17:00:37.644Z,3.28
2023-04-01T17:03:18.470Z,3.03
2023-04-01T17:06:11.501Z,3.38
2023-04-01T17:08:44.131Z,3.20
2023-04-01T17:11:18.493Z,3.38
2023-04-01T17:14:01.355Z,5.45
2023-04-01T17:16:49.828Z,3.53
2023-04-01T17:19:42.594Z,5.10
2023-04-01T17:22:12.615Z,2.83
2023-04-01T17:25:05.678Z,4.15
2023-04-01T17:28:17.933Z,5.68
2023-04-01T17:30:53.328Z,6.57
2023-04-01T17:33:41.754Z,4.13
2023-04-01T17:36:23.058Z,3.22
2023-04-01T17:39:11.350Z,2.58
2023-04-01T17:41:50.439Z,2.63
2023-04-01T17:44:54.219Z,5.13
2023-04-01T17:47:34.541Z,3.28
2023-04-01T17:50:24.370Z,2.72
2023-04-01T17:53:18.766Z,3.95
2023-04-01T17:55:57.107Z,1.52
2023-04-01T17:58:39.209Z,3.28
2023-04-01T18:01:40.265Z,2.97
2023-04-01T18:04:38.413Z,3.03
2023-04-01T18:07:20.029Z,2.38
2023-04-01T18:10:29.322Z,4.28
2023-04-01T18:13:02.288Z,2.05
2023-04-01T18:15:53.387Z,2.25
2023-04-01T18:18:42.276Z,2.10
2023-04-01T18:21:30.268Z,1.35
2023-04-01T18:24:25.018Z,2.13
2023-04-01T18:27:09.283Z,2.80
2023-04-01T18:29:58.305Z,1.25
2023-04-01T18:32:46.139Z,1.27
2023-04-01T18:35:29.807Z,2.33
2023-04-01T18:38:12.228Z,2.55
2023-04-01T18:40:52.620Z,1.92
2023-04-01T18:43:40.511Z,3.97
2023-04-01T18:47:05.773Z,2.63
2023-04-01T18:50:01.452Z,3.35
2023-04-01T18:52:37.358Z,3.17
2023-04-01T18:55:04.630Z,3.40
2023-04-01T18:57:59.984Z,2.22
2023-04-01T19:00:38.640Z,5.20
2023-04-01T19:03:25.667Z,3.13
2023-04-01T19:05:55.849Z,4.30
2023-04-01T19:08:33.197Z,2.30
2023-04-01T19:11:31.312Z,3.10
2023-04-01T19:14:18.531Z,1.98
2023-04-01T19:17:07.430Z,2.72
2023-04-01T19:19:56.998Z,3.28
2023-04-01T19:22:32.874Z,2.25
2023-04-01T19:25:08.764Z,2.88
2023-04-01T19:27:46.943Z,2.90
2023-04-01T19:30:17.117Z,3.47
2023-04-01T19:33:07.398Z,3.60
2023-04-01T19:35:49.928Z,2.13
2023-04-01T19:38:44.243Z,3.05
2023-04-01T19:41:30.537Z,4.40
2023-04-01T19:44:19.136Z,3.40
2023-04-01T19:46:52.783Z,3.00
2023-04-01T19:49:34.910Z,2.78
2023-04-01T19:52:17.125Z,3.50
2023-04-01T19:54:47.261Z,2.72
2023-04-01T19:57:14.364Z,2.83
2023-04-01T19:59:59.650Z,3.65
2023-04-01T20:02:34.319Z,2.97
2023-04-01T20:05:21.537Z,3.53
2023-04-01T20:08:09.854Z,3.42
2023-04-01T20:11:07.922Z,2.40
2023-04-01T20:13:42.588Z,5.30
2023-04-01T20:16:11.843Z,4.07
2023-04-01T20:18:52.972Z,4.43
2023-04-01T20:21:25.693Z,5.90
2023-04-01T20:23:57.866Z,3.85
2023-04-01T20:26:34.907Z,4.15
2023-04-01T20:29:32.649Z,4.93
2023-04-01T20:32:21.728Z,2.53
2023-04-01T20:35:09.572Z,4.38
2023-04-01T20:37:52.078Z,7.45
2023-04-01T20:40:31.684Z,3.83
2023-04-01T20:43:21.334Z,4.47
2023-04-01T20:46:19.912Z,4.72
2023-04-01T20:49:19.178Z,4.28
2023-04-01T20:52:19.154Z,2.30
2023-04-01T20:55:04.703Z,3.58
2023-04-01T20:57:58.678Z,4.38
2023-04-01T21:00:46.617Z,3.30
2023-04-01T21:03:31.493Z,5.57
2023-04-01T21:06:11.709Z,3.80
2023-04-01T21:08:48.988Z,2.97
2023-04-01T21:11:29.793Z,3.28
2023-04-01T21:14:06.649Z,3.53
2023-04-01T21:17:09.430Z,3.55
2023-04-01T21:19:43.415Z,3.17
2023-04-01T21:22:28.521Z,4.72
2023-04-01T21:25:23.468Z,3.30
2023-04-01T21:27:59.364Z,2.38
2023-04-01T21:31:01.432Z,3.35
2023-04-01T21:33:48.105Z,4.32
2023-04-01T21:36:21.200Z,2.17
2023-04-01T21:38:48.329Z,1.83
2023-04-01T21:41:42.935Z,2.78
2023-04-01T21:44:27.987Z,2.45
2023-04-01T21:47:19.575Z,3.80
2023-04-01T21:50:11.915Z,4.00
2023-04-01T21:52:59.000Z,3.35
2023-04-01T21:56:03.245Z,4.43
2023-04-01T21:58:48.800Z,3.72
2023-04-01T22:01:34.640Z,3.50
2023-04-01T22:04:22.867Z,3.28
2023-04-01T22:07:03.951Z,4.15
2023-04-01T22:09:45.323Z,5.47
2023-04-01T22:12:16.106Z,8.82
2023-04-01T22:14:43.103Z,5.32
2023-04-01T22:17:30.513Z,4.65
2023-04-01T22:20:25.158Z,5.53
2023-04-01T22:23:19.747Z,5.35
2023-04-01T22:25:57.600Z,7.30
2023-04-01T22:28:39.073Z,4.25
2023-04-01T22:31:09.167Z,6.70
2023-04-01T22:34:05.928Z,4.57
2023-04-01T22:36:45.118Z,4.38
2023-04-01T22:39:24.063Z,7.00
2023-04-01T22:41:57.044Z,5.43
2023-04-01T22:44:40.348Z,5.28
2023-04-01T22:47:16.373Z,5.88
2023-04-01T22:50:11.571Z,4.22
2023-04-01T22:52:43.359Z,3.30
2023-04-01T22:58:00.603Z,3.90
2023-04-01T23:00:46.504Z,2.53
2023-04-01T23:03:32.548Z,4.10
2023-04-01T23:06:02.412Z,4.85
2023-04-01T23:08:29.325Z,4.28
2023-04-01T23:10:59.687Z,2.78
2023-04-01T23:13:57.725Z,6.15
2023-04-01T23:16:33.713Z,4.82
2023-04-01T23:19:18.993Z,3.92
2023-04-01T23:22:12.428Z,3.00
2023-04-01T23:24:49.809Z,4.82
2023-04-01T23:27:37.232Z,4.13
2023-04-01T23:30:05.125Z,4.57
2023-04-01T23:32:32.106Z,3.80
2023-04-01T23:35:01.228Z,4.35
2023-04-01T23:37:28.741Z,4.60
2023-04-01T23:39:58.452Z,4.38
2023-04-01T23:42:31.269Z,4.50
2023-04-01T23:45:13.678Z,4.85
2023-04-01T23:47:42.346Z,6.85
2023-04-01T23:50:23.830Z,5.18
2023-04-01T23:53:03.550Z,6.28
2023-04-01T23:55:35.163Z,3.88
